createdAt,value
2018-02-09T00:07:34.978Z,74.1
2018-02-09T00:17:49.578Z,74.2
2018-02-09T00:28:03.595Z,74.2
2018-02-09T00:38:17.716Z,74.1
2018-02-09T01:01:26.861Z,74.1
2018-02-09T01:12:11.601Z,74.3
2018-02-09T01:22:25.897Z,74.1
2018-02-09T01:43:58.582Z,74.0
2018-02-09T02:23:20.230Z,74.0
2018-02-09T02:33:34.508Z,74.0
2018-02-09T02:43:48.894Z,74.2
2018-02-09T02:54:33.699Z,73.9
2018-02-09T03:49:24.798Z,73.6
2018-02-09T04:15:10.597Z,73.9
2018-02-09T04:27:31.058Z,74.0
2018-02-09T04:42:26.345Z,74.2
2018-02-09T04:54:57.359Z,73.9
2018-02-09T05:07:03.848Z,74.2
2018-02-09T05:18:11.218Z,74.7
2018-02-09T05:28:27.131Z,75.2
2018-02-09T05:38:40.791Z,75.5
2018-02-09T05:50:02.006Z,75.7
2018-02-09T06:16:56.634Z,75.9
2018-02-09T06:28:48.390Z,75.9
2018-02-09T06:41:38.332Z,75.8
2018-02-09T06:51:52.647Z,75.8
2018-02-09T07:03:16.025Z,75.8
2018-02-09T07:36:42.737Z,76.2
2018-02-09T07:47:48.765Z,76.5
2018-02-09T07:58:53.092Z,77.0
2018-02-09T08:09:42.021Z,79.0
2018-02-09T08:19:56.678Z,80.8
2018-02-09T08:30:41.284Z,78.6
2018-02-09T08:41:26.284Z,74.5
2018-02-09T08:51:40.127Z,72.4
2018-02-09T09:02:24.961Z,71.4
2018-02-09T09:13:10.993Z,71.3
2018-02-09T09:23:25.184Z,71.7
2018-02-09T09:33:39.692Z,72.2
2018-02-09T09:43:53.735Z,72.6
2018-02-09T09:54:39.512Z,73.0
2018-02-09T10:05:25.467Z,72.8
2018-02-09T10:15:39.131Z,73.5
2018-02-09T10:26:23.746Z,73.5
2018-02-09T10:37:09.850Z,74.9
2018-02-09T10:47:24.028Z,78.8
2018-02-09T10:57:38.125Z,81.7
2018-02-09T11:08:23.232Z,80.1
2018-02-09T11:18:38.537Z,77.8
2018-02-09T11:28:52.633Z,74.1
2018-02-09T11:39:07.584Z,71.6
2018-02-09T11:49:22.933Z,69.8
2018-02-09T11:59:37.232Z,67.3
2018-02-09T12:09:51.102Z,65.9
2018-02-09T12:20:24.419Z,64.3
2018-02-09T12:30:39.186Z,63.3
2018-02-09T12:40:53.279Z,63.0
2018-02-09T12:51:07.396Z,63.2
2018-02-09T13:01:21.642Z,63.4
2018-02-09T13:12:20.976Z,63.4
2018-02-09T13:23:42.602Z,65.1
2018-02-09T13:33:54.153Z,65.8
2018-02-09T13:44:08.843Z,67.2
2018-02-09T13:54:57.458Z,69.1
2018-02-09T14:05:12.429Z,70.4
2018-02-09T14:15:27.360Z,70.9
2018-02-09T14:25:42.906Z,73.1
2018-02-09T14:36:33.193Z,73.2
2018-02-09T14:46:48.215Z,72.8
2018-02-09T14:57:06.300Z,62.0
2018-02-09T15:07:21.327Z,68.8
2018-02-09T15:17:43.375Z,70.2
2018-02-09T15:40:09.099Z,70.9
2018-02-09T15:50:53.973Z,70.2
2018-02-09T16:01:08.180Z,69.9
2018-02-09T16:11:43.652Z,69.3
2018-02-09T16:21:57.750Z,69.0
2018-02-09T16:32:43.110Z,68.7
2018-02-09T16:42:57.856Z,68.3
2018-02-09T17:03:12.016Z,67.5
2018-02-09T17:37:11.519Z,69.0
2018-02-09T17:48:17.465Z,69.4
2018-02-09T17:58:55.706Z,70.0
2018-02-09T18:11:58.530Z,70.5
2018-02-09T18:22:10.844Z,70.9
2018-02-09T18:49:52.208Z,71.4
2018-02-09T19:00:06.469Z,71.7
2018-02-09T19:10:25.657Z,71.8
2018-02-09T19:22:54.952Z,72.0
2018-02-09T19:50:28.596Z,71.9
2018-02-09T20:24:50.503Z,72.3
2018-02-09T20:35:44.131Z,72.8
2018-02-09T20:46:16.357Z,72.7
2018-02-09T20:57:03.965Z,72.9
2018-02-09T21:08:59.650Z,72.8
2018-02-09T21:19:46.660Z,73.0
2018-02-09T21:30:00.667Z,72.8
2018-02-09T21:40:49.173Z,72.8
2018-02-09T22:03:49.387Z,72.8
2018-02-09T22:14:34.023Z,72.7
2018-02-09T22:24:48.189Z,72.9
2018-02-09T22:35:02.678Z,72.9
2018-02-09T22:45:14.723Z,73.1
2018-02-09T22:55:28.702Z,73.4
2018-02-09T23:05:43.053Z,73.6
2018-02-09T23:15:57.001Z,73.3
2018-02-09T23:26:11.423Z,73.3
2018-02-09T23:36:25.790Z,72.9
2018-02-09T23:56:55.923Z,72.8
